sensor_id;sensor_type;location;lat;lon;timestamp;pressure;altitude;pressure_sealevel;temperature;humidity
59487;BME280;45298;54.918;73.504;2022-12-29T00:01:05;101702.44;;;-16.05;83.02
59487;BME280;45298;54.918;73.504;2022-12-29T00:03:34;101719.34;;;-15.94;82.92
59487;BME280;45298;54.918;73.504;2022-12-29T00:06:03;101713.59;;;-15.91;83.76
59487;BME280;45298;54.918;73.504;2022-12-29T00:08:32;101731.16;;;-15.83;83.66
59487;BME280;45298;54.918;73.504;2022-12-29T00:11:16;101725.94;;;-15.84;83.87
59487;BME280;45298;54.918;73.504;2022-12-29T00:13:46;101722.44;;;-15.86;83.59
59487;BME280;45298;54.918;73.504;2022-12-29T00:16:34;101745.63;;;-15.70;83.25
59487;BME280;45298;54.918;73.504;2022-12-29T00:19:04;101737.31;;;-15.79;82.92
59487;BME280;45298;54.918;73.504;2022-12-29T00:21:33;101695.91;;;-16.02;83.37
59487;BME280;45298;54.918;73.504;2022-12-29T00:24:21;101755.13;;;-15.67;83.28
59487;BME280;45298;54.918;73.504;2022-12-29T00:27:07;101749.03;;;-15.69;82.99
59487;BME280;45298;54.918;73.504;2022-12-29T00:29:56;101730.16;;;-15.85;83.67
59487;BME280;45298;54.918;73.504;2022-12-29T00:32:44;101715.94;;;-15.94;83.24
59487;BME280;45298;54.918;73.504;2022-12-29T00:35:34;101729.28;;;-15.85;83.19
59487;BME280;45298;54.918;73.504;2022-12-29T00:38:07;101774.81;;;-15.65;82.59
59487;BME280;45298;54.918;73.504;2022-12-29T00:40:55;101720.47;;;-15.90;83.19
59487;BME280;45298;54.918;73.504;2022-12-29T00:43:42;101701.44;;;-15.96;82.65
59487;BME280;45298;54.918;73.504;2022-12-29T00:46:29;101767.16;;;-15.65;83.04
59487;BME280;45298;54.918;73.504;2022-12-29T00:48:59;101718.03;;;-15.89;83.20
59487;BME280;45298;54.918;73.504;2022-12-29T00:51:47;101703.66;;;-16.00;83.07
59487;BME280;45298;54.918;73.504;2022-12-29T00:54:16;101768.63;;;-15.68;82.99
59487;BME280;45298;54.918;73.504;2022-12-29T00:56:51;101757.13;;;-15.75;82.94
59487;BME280;45298;54.918;73.504;2022-12-29T00:59:21;101770.38;;;-15.67;83.03
59487;BME280;45298;54.918;73.504;2022-12-29T01:01:53;101794.94;;;-15.56;82.90
59487;BME280;45298;54.918;73.504;2022-12-29T01:04:25;101774.56;;;-15.68;82.94
59487;BME280;45298;54.918;73.504;2022-12-29T01:06:54;101739.66;;;-15.82;83.43
59487;BME280;45298;54.918;73.504;2022-12-29T01:09:23;101763.53;;;-15.68;82.48
59487;BME280;45298;54.918;73.504;2022-12-29T01:12:11;101751.59;;;-15.69;83.59
59487;BME280;45298;54.918;73.504;2022-12-29T01:14:41;101755.03;;;-15.81;82.47
59487;BME280;45298;54.918;73.504;2022-12-29T01:17:10;101779.44;;;-15.59;83.53
59487;BME280;45298;54.918;73.504;2022-12-29T01:19:39;101789.59;;;-15.47;83.10
59487;BME280;45298;54.918;73.504;2022-12-29T01:22:08;101744.97;;;-15.67;83.41
59487;BME280;45298;54.918;73.504;2022-12-29T01:24:37;101779.25;;;-15.50;82.85
59487;BME280;45298;54.918;73.504;2022-12-29T01:27:06;101769.16;;;-15.48;82.99
59487;BME280;45298;54.918;73.504;2022-12-29T01:29:35;101751.81;;;-15.66;82.49
59487;BME280;45298;54.918;73.504;2022-12-29T01:32:05;101759.66;;;-15.63;82.97
59487;BME280;45298;54.918;73.504;2022-12-29T01:34:33;101664.53;;;-16.14;83.31
59487;BME280;45298;54.918;73.504;2022-12-29T01:37:03;101734.09;;;-15.76;83.45
59487;BME280;45298;54.918;73.504;2022-12-29T01:39:31;101761.53;;;-15.60;83.31
59487;BME280;45298;54.918;73.504;2022-12-29T01:42:01;101752.69;;;-15.66;82.58
59487;BME280;45298;54.918;73.504;2022-12-29T01:47:56;101751.81;;;-15.66;83.51
59487;BME280;45298;54.918;73.504;2022-12-29T01:50:32;101748.03;;;-15.71;82.29
59487;BME280;45298;54.918;73.504;2022-12-29T01:53:10;101778.66;;;-15.58;82.95
59487;BME280;45298;54.918;73.504;2022-12-29T01:55:48;101672.59;;;-16.20;83.05
59487;BME280;45298;54.918;73.504;2022-12-29T01:58:20;101804.47;;;-15.41;82.78
59487;BME280;45298;54.918;73.504;2022-12-29T02:00:51;101791.84;;;-15.40;82.36
59487;BME280;45298;54.918;73.504;2022-12-29T02:03:21;101795.47;;;-15.36;82.50
59487;BME280;45298;54.918;73.504;2022-12-29T02:06:12;101799.56;;;-15.38;83.55
59487;BME280;45298;54.918;73.504;2022-12-29T02:08:47;101751.81;;;-15.66;82.78
59487;BME280;45298;54.918;73.504;2022-12-29T02:11:18;101753.34;;;-15.68;82.37
59487;BME280;45298;54.918;73.504;2022-12-29T02:14:12;101669.84;;;-16.23;83.22
59487;BME280;45298;54.918;73.504;2022-12-29T02:17:00;101746.63;;;-15.80;82.73
59487;BME280;45298;54.918;73.504;2022-12-29T02:20:02;101793.84;;;-15.47;82.06
59487;BME280;45298;54.918;73.504;2022-12-29T02:25:59;101771.06;;;-15.70;82.94
59487;BME280;45298;54.918;73.504;2022-12-29T02:28:53;101776.69;;;-15.62;83.21
59487;BME280;45298;54.918;73.504;2022-12-29T02:34:47;101794.69;;;-15.47;82.89
59487;BME280;45298;54.918;73.504;2022-12-29T02:37:42;101799.38;;;-15.41;82.92
59487;BME280;45298;54.918;73.504;2022-12-29T02:40:59;101807.09;;;-15.40;82.65
59487;BME280;45298;54.918;73.504;2022-12-29T02:43:27;101807.97;;;-15.39;81.75
59487;BME280;45298;54.918;73.504;2022-12-29T02:46:10;101667.06;;;-16.26;81.73
59487;BME280;45298;54.918;73.504;2022-12-29T02:52:17;101753.25;;;-15.82;82.65
59487;BME280;45298;54.918;73.504;2022-12-29T02:54:48;101769.63;;;-15.90;82.57
59487;BME280;45298;54.918;73.504;2022-12-29T03:00:02;101789.84;;;-15.56;82.06
59487;BME280;45298;54.918;73.504;2022-12-29T03:02:43;101814.63;;;-15.41;82.46
59487;BME280;45298;54.918;73.504;2022-12-29T03:11:03;101829.22;;;-15.39;82.46
59487;BME280;45298;54.918;73.504;2022-12-29T03:13:59;101719.78;;;-16.12;81.59
59487;BME280;45298;54.918;73.504;2022-12-29T03:16:54;101838.63;;;-15.50;81.69
59487;BME280;45298;54.918;73.504;2022-12-29T03:19:38;101766.78;;;-15.94;82.02
59487;BME280;45298;54.918;73.504;2022-12-29T03:22:17;101800.44;;;-15.73;nan
59487;BME280;45298;54.918;73.504;2022-12-29T03:25:24;101847.94;;;-15.50;82.26
59487;BME280;45298;54.918;73.504;2022-12-29T03:28:03;101804.69;;;-15.86;82.40
59487;BME280;45298;54.918;73.504;2022-12-29T03:30:41;101533.72;;;-17.38;81.13
59487;BME280;45298;54.918;73.504;2022-12-29T03:33:19;101836.75;;;-15.64;81.82
59487;BME280;45298;54.918;73.504;2022-12-29T03:35:52;101814.16;;;-15.71;81.95
59487;BME280;45298;54.918;73.504;2022-12-29T03:40:58;101655.94;;;-16.86;81.65
59487;BME280;45298;54.918;73.504;2022-12-29T03:43:29;101836.94;;;-15.85;81.84
59487;BME280;45298;54.918;73.504;2022-12-29T03:45:58;101861.50;;;-15.73;80.84
59487;BME280;45298;54.918;73.504;2022-12-29T03:48:27;101826.56;;;-15.88;82.06
59487;BME280;45298;54.918;73.504;2022-12-29T03:50:56;101809.53;;;-15.89;80.86
59487;BME280;45298;54.918;73.504;2022-12-29T03:53:25;101806.22;;;-15.88;82.27
59487;BME280;45298;54.918;73.504;2022-12-29T03:55:53;101837.19;;;-15.70;82.09
59487;BME280;45298;54.918;73.504;2022-12-29T03:58:23;101852.63;;;-15.78;81.94
59487;BME280;45298;54.918;73.504;2022-12-29T04:01:12;101837.81;;;-15.72;81.81
59487;BME280;45298;54.918;73.504;2022-12-29T04:03:42;101817.69;;;-15.81;81.73
59487;BME280;45298;54.918;73.504;2022-12-29T04:06:12;101794.06;;;-15.92;81.33
59487;BME280;45298;54.918;73.504;2022-12-29T04:08:47;101800.56;;;-15.84;82.08
59487;BME280;45298;54.918;73.504;2022-12-29T04:11:16;101851.34;;;-15.50;81.28
59487;BME280;45298;54.918;73.504;2022-12-29T04:13:45;101714.88;;;-16.32;81.13
59487;BME280;45298;54.918;73.504;2022-12-29T04:16:18;101860.75;;;-15.48;81.29
59487;BME280;45298;54.918;73.504;2022-12-29T04:18:47;101861.97;;;-15.43;81.86
59487;BME280;45298;54.918;73.504;2022-12-29T04:21:16;101790.63;;;-15.81;82.05
59487;BME280;45298;54.918;73.504;2022-12-29T04:23:45;101871.03;;;-15.47;81.47
59487;BME280;45298;54.918;73.504;2022-12-29T04:26:16;101872.47;;;-15.51;81.51
59487;BME280;45298;54.918;73.504;2022-12-29T04:28:54;101828.88;;;-15.67;82.07
59487;BME280;45298;54.918;73.504;2022-12-29T04:31:32;101832.31;;;-15.55;81.06
59487;BME280;45298;54.918;73.504;2022-12-29T04:34:01;101856.31;;;-15.39;81.61
59487;BME280;45298;54.918;73.504;2022-12-29T04:36:31;101860.44;;;-15.41;80.67
59487;BME280;45298;54.918;73.504;2022-12-29T04:39:01;101695.47;;;-16.32;81.22
59487;BME280;45298;54.918;73.504;2022-12-29T04:41:34;101876.34;;;-15.32;81.43
59487;BME280;45298;54.918;73.504;2022-12-29T04:44:05;101844.59;;;-15.49;80.92
59487;BME280;45298;54.918;73.504;2022-12-29T04:46:53;101862.06;;;-15.30;81.57
59487;BME280;45298;54.918;73.504;2022-12-29T04:49:48;101882.22;;;-15.09;80.62
59487;BME280;45298;54.918;73.504;2022-12-29T04:52:37;101831.22;;;-15.35;80.98
59487;BME280;45298;54.918;73.504;2022-12-29T04:55:09;101862.19;;;-15.16;80.63
59487;BME280;45298;54.918;73.504;2022-12-29T04:57:37;101846.81;;;-15.30;81.11
59487;BME280;45298;54.918;73.504;2022-12-29T05:00:08;101854.34;;;-15.31;80.74
59487;BME280;45298;54.918;73.504;2022-12-29T05:02:40;101814.19;;;-15.59;80.37
59487;BME280;45298;54.918;73.504;2022-12-29T05:05:10;101759.78;;;-15.97;80.03
59487;BME280;45298;54.918;73.504;2022-12-29T05:07:42;101860.22;;;-15.44;79.86
59487;BME280;45298;54.918;73.504;2022-12-29T05:10:11;101858.22;;;-15.48;80.55
59487;BME280;45298;54.918;73.504;2022-12-29T05:12:40;101846.25;;;-15.50;79.98
59487;BME280;45298;54.918;73.504;2022-12-29T05:15:11;101830.44;;;-15.45;80.87
59487;BME280;45298;54.918;73.504;2022-12-29T05:17:39;101853.53;;;-15.19;79.96
59487;BME280;45298;54.918;73.504;2022-12-29T05:20:09;101865.94;;;-14.99;80.15
59487;BME280;45298;54.918;73.504;2022-12-29T05:22:38;101845.66;;;-14.98;80.34
59487;BME280;45298;54.918;73.504;2022-12-29T05:25:08;101885.91;;;-14.68;80.37
59487;BME280;45298;54.918;73.504;2022-12-29T05:27:57;101830.72;;;-14.93;80.12
59487;BME280;45298;54.918;73.504;2022-12-29T05:30:40;101878.38;;;-14.67;80.27
59487;BME280;45298;54.918;73.504;2022-12-29T05:33:08;101888.63;;;-14.53;80.02
59487;BME280;45298;54.918;73.504;2022-12-29T05:35:40;101844.09;;;-14.84;79.57
59487;BME280;45298;54.918;73.504;2022-12-29T05:38:09;101823.84;;;-14.82;79.92
59487;BME280;45298;54.918;73.504;2022-12-29T05:40:40;101858.03;;;-14.53;79.71
59487;BME280;45298;54.918;73.504;2022-12-29T05:43:35;101852.69;;;-14.45;79.70
59487;BME280;45298;54.918;73.504;2022-12-29T05:46:27;101854.41;;;-14.32;79.76
59487;BME280;45298;54.918;73.504;2022-12-29T05:49:19;101883.28;;;-14.19;79.10
59487;BME280;45298;54.918;73.504;2022-12-29T05:52:19;101863.81;;;-14.56;78.72
59487;BME280;45298;54.918;73.504;2022-12-29T05:54:48;101900.38;;;-14.55;79.27
59487;BME280;45298;54.918;73.504;2022-12-29T05:57:20;101843.78;;;-14.89;78.93
59487;BME280;45298;54.918;73.504;2022-12-29T05:59:58;101861.44;;;-14.78;79.63
59487;BME280;45298;54.918;73.504;2022-12-29T06:02:31;101888.19;;;-14.60;79.16
59487;BME280;45298;54.918;73.504;2022-12-29T06:05:00;101872.63;;;-14.76;78.75
59487;BME280;45298;54.918;73.504;2022-12-29T06:07:29;101858.97;;;-15.02;78.68
59487;BME280;45298;54.918;73.504;2022-12-29T06:09:58;101841.41;;;-15.23;78.29
59487;BME280;45298;54.918;73.504;2022-12-29T06:12:30;101858.22;;;-15.13;79.08
59487;BME280;45298;54.918;73.504;2022-12-29T06:14:58;101893.84;;;-15.01;78.15
59487;BME280;45298;54.918;73.504;2022-12-29T06:17:27;101893.50;;;-15.17;79.03
59487;BME280;45298;54.918;73.504;2022-12-29T06:19:56;101887.63;;;-15.16;78.06
59487;BME280;45298;54.918;73.504;2022-12-29T06:22:25;101892.84;;;-15.15;79.12
59487;BME280;45298;54.918;73.504;2022-12-29T06:24:53;101896.41;;;-15.01;79.24
59487;BME280;45298;54.918;73.504;2022-12-29T06:27:31;101833.63;;;-15.36;78.26
59487;BME280;45298;54.918;73.504;2022-12-29T06:30:00;101895.81;;;-14.97;78.99
59487;BME280;45298;54.918;73.504;2022-12-29T06:32:29;101865.25;;;-15.09;78.56
59487;BME280;45298;54.918;73.504;2022-12-29T06:35:03;101902.44;;;-14.99;77.61
59487;BME280;45298;54.918;73.504;2022-12-29T06:37:36;101839.19;;;-15.30;78.23
59487;BME280;45298;54.918;73.504;2022-12-29T06:40:05;101838.50;;;-15.39;77.99
59487;BME280;45298;54.918;73.504;2022-12-29T06:42:52;101842.16;;;-15.24;78.35
59487;BME280;45298;54.918;73.504;2022-12-29T06:45:44;101837.19;;;-15.22;78.73
59487;BME280;45298;54.918;73.504;2022-12-29T06:48:13;101859.84;;;-15.01;78.41
59487;BME280;45298;54.918;73.504;2022-12-29T06:50:44;101892.88;;;-14.66;78.58
59487;BME280;45298;54.918;73.504;2022-12-29T06:53:12;101836.47;;;-14.96;78.48
59487;BME280;45298;54.918;73.504;2022-12-29T06:55:41;101888.31;;;-14.58;78.89
59487;BME280;45298;54.918;73.504;2022-12-29T06:58:10;101848.84;;;-14.77;79.40
59487;BME280;45298;54.918;73.504;2022-12-29T07:00:39;101903.22;;;-14.51;78.89
59487;BME280;45298;54.918;73.504;2022-12-29T07:03:08;101750.31;;;-15.27;78.72
59487;BME280;45298;54.918;73.504;2022-12-29T07:05:36;101863.38;;;-14.62;78.46
59487;BME280;45298;54.918;73.504;2022-12-29T07:08:05;101851.72;;;-14.84;78.84
59487;BME280;45298;54.918;73.504;2022-12-29T07:10:34;101865.22;;;-14.73;78.82
59487;BME280;45298;54.918;73.504;2022-12-29T07:13:03;101769.25;;;-15.35;78.64
59487;BME280;45298;54.918;73.504;2022-12-29T07:15:32;101857.50;;;-14.86;78.78
59487;BME280;45298;54.918;73.504;2022-12-29T07:18:00;101885.59;;;-14.73;78.93
59487;BME280;45298;54.918;73.504;2022-12-29T07:20:29;101886.22;;;-14.64;78.93
59487;BME280;45298;54.918;73.504;2022-12-29T07:22:58;101854.59;;;-14.79;79.10
59487;BME280;45298;54.918;73.504;2022-12-29T07:25:27;101849.09;;;-14.97;79.26
59487;BME280;45298;54.918;73.504;2022-12-29T07:28:00;101768.38;;;-15.47;78.50
59487;BME280;45298;54.918;73.504;2022-12-29T07:30:29;101827.66;;;-15.13;79.12
59487;BME280;45298;54.918;73.504;2022-12-29T07:32:58;101881.97;;;-14.89;78.92
59487;BME280;45298;54.918;73.504;2022-12-29T07:35:27;101757.22;;;-15.61;78.53
59487;BME280;45298;54.918;73.504;2022-12-29T07:37:56;101881.19;;;-14.87;78.73
59487;BME280;45298;54.918;73.504;2022-12-29T07:40:25;101878.13;;;-14.95;79.09
59487;BME280;45298;54.918;73.504;2022-12-29T07:42:55;101861.84;;;-15.09;79.10
59487;BME280;45298;54.918;73.504;2022-12-29T07:45:48;101857.31;;;-15.13;77.95
59487;BME280;45298;54.918;73.504;2022-12-29T07:48:17;101824.22;;;-15.37;78.78
59487;BME280;45298;54.918;73.504;2022-12-29T07:50:47;101851.22;;;-15.15;78.05
59487;BME280;45298;54.918;73.504;2022-12-29T07:53:16;101841.25;;;-15.12;78.65
59487;BME280;45298;54.918;73.504;2022-12-29T07:55:45;101829.84;;;-15.17;78.55
59487;BME280;45298;54.918;73.504;2022-12-29T07:58:14;101824.13;;;-15.15;78.68
59487;BME280;45298;54.918;73.504;2022-12-29T08:00:42;101836.38;;;-15.09;78.64
59487;BME280;45298;54.918;73.504;2022-12-29T08:03:15;101744.06;;;-15.56;78.31
59487;BME280;45298;54.918;73.504;2022-12-29T08:05:47;101843.13;;;-14.98;78.53
59487;BME280;45298;54.918;73.504;2022-12-29T08:08:16;101812.19;;;-15.28;78.29
59487;BME280;45298;54.918;73.504;2022-12-29T08:10:45;101792.50;;;-15.42;78.42
59487;BME280;45298;54.918;73.504;2022-12-29T08:13:16;101813.72;;;-15.30;77.94
59487;BME280;45298;54.918;73.504;2022-12-29T08:15:48;101832.00;;;-15.24;78.31
59487;BME280;45298;54.918;73.504;2022-12-29T08:18:17;101707.63;;;-15.92;77.99
59487;BME280;45298;54.918;73.504;2022-12-29T08:20:46;101804.53;;;-15.28;79.09
59487;BME280;45298;54.918;73.504;2022-12-29T08:23:21;101867.47;;;-14.90;78.55
59487;BME280;45298;54.918;73.504;2022-12-29T08:25:57;101813.50;;;-15.21;78.20
59487;BME280;45298;54.918;73.504;2022-12-29T08:28:27;101810.94;;;-15.21;79.01
59487;BME280;45298;54.918;73.504;2022-12-29T08:31:00;101862.16;;;-14.93;78.57
59487;BME280;45298;54.918;73.504;2022-12-29T08:33:29;101857.84;;;-14.94;78.70
59487;BME280;45298;54.918;73.504;2022-12-29T08:36:00;101864.59;;;-14.94;78.77
59487;BME280;45298;54.918;73.504;2022-12-29T08:38:33;101878.53;;;-14.89;78.50
59487;BME280;45298;54.918;73.504;2022-12-29T08:41:04;101873.44;;;-14.89;78.17
59487;BME280;45298;54.918;73.504;2022-12-29T08:43:34;101856.44;;;-15.02;78.29
59487;BME280;45298;54.918;73.504;2022-12-29T08:46:03;101800.56;;;-15.36;78.02
59487;BME280;45298;54.918;73.504;2022-12-29T08:48:32;101813.41;;;-15.35;78.28
59487;BME280;45298;54.918;73.504;2022-12-29T08:51:01;101861.94;;;-15.08;78.63
59487;BME280;45298;54.918;73.504;2022-12-29T08:53:35;101818.59;;;-15.33;78.10
59487;BME280;45298;54.918;73.504;2022-12-29T08:56:04;101842.94;;;-15.25;78.36
59487;BME280;45298;54.918;73.504;2022-12-29T08:58:43;101815.50;;;-15.41;78.79
59487;BME280;45298;54.918;73.504;2022-12-29T09:01:11;101834.84;;;-15.31;78.96
59487;BME280;45298;54.918;73.504;2022-12-29T09:03:40;101811.50;;;-15.49;78.56
59487;BME280;45298;54.918;73.504;2022-12-29T09:06:31;101839.50;;;-15.37;78.96
59487;BME280;45298;54.918;73.504;2022-12-29T09:09:07;101852.69;;;-15.31;77.95
59487;BME280;45298;54.918;73.504;2022-12-29T09:11:36;101838.19;;;-15.44;78.06
59487;BME280;45298;54.918;73.504;2022-12-29T09:14:05;101820.50;;;-15.54;78.73
59487;BME280;45298;54.918;73.504;2022-12-29T09:16:34;101854.88;;;-15.47;78.53
59487;BME280;45298;54.918;73.504;2022-12-29T09:19:04;101886.28;;;-15.59;78.47
59487;BME280;45298;54.918;73.504;2022-12-29T09:21:33;101884.09;;;-15.42;78.90
59487;BME280;45298;54.918;73.504;2022-12-29T09:24:02;101866.56;;;-15.73;78.64
59487;BME280;45298;54.918;73.504;2022-12-29T09:26:31;101845.34;;;-15.98;78.63
59487;BME280;45298;54.918;73.504;2022-12-29T09:29:00;101866.25;;;-15.90;78.15
59487;BME280;45298;54.918;73.504;2022-12-29T09:31:29;101856.72;;;-16.04;78.19
59487;BME280;45298;54.918;73.504;2022-12-29T09:33:57;101862.34;;;-16.08;78.69
59487;BME280;45298;54.918;73.504;2022-12-29T09:36:26;101894.84;;;-16.04;78.54
59487;BME280;45298;54.918;73.504;2022-12-29T09:38:57;101852.78;;;-16.23;78.45
59487;BME280;45298;54.918;73.504;2022-12-29T09:41:41;101781.03;;;-16.77;77.78
59487;BME280;45298;54.918;73.504;2022-12-29T09:44:19;101916.00;;;-16.16;77.51
59487;BME280;45298;54.918;73.504;2022-12-29T09:46:52;101825.41;;;-16.72;78.14
59487;BME280;45298;54.918;73.504;2022-12-29T09:52:30;101912.06;;;-16.34;77.80
59487;BME280;45298;54.918;73.504;2022-12-29T09:55:30;101908.75;;;-16.33;78.12
59487;BME280;45298;54.918;73.504;2022-12-29T09:58:05;101915.44;;;-16.46;78.28
59487;BME280;45298;54.918;73.504;2022-12-29T10:00:49;101917.44;;;-16.42;78.66
59487;BME280;45298;54.918;73.504;2022-12-29T10:03:24;101782.69;;;-17.22;77.72
59487;BME280;45298;54.918;73.504;2022-12-29T10:09:02;101783.50;;;-17.33;78.26
59487;BME280;45298;54.918;73.504;2022-12-29T10:17:48;101878.41;;;-16.98;78.77
59487;BME280;45298;54.918;73.504;2022-12-29T10:20:38;101887.94;;;-17.06;77.30
59487;BME280;45298;54.918;73.504;2022-12-29T10:25:47;101902.25;;;-17.07;77.90
59487;BME280;45298;54.918;73.504;2022-12-29T10:28:20;101908.84;;;-16.98;78.73
59487;BME280;45298;54.918;73.504;2022-12-29T10:30:51;101892.31;;;-17.26;78.21
59487;BME280;45298;54.918;73.504;2022-12-29T10:33:30;101891.41;;;-17.16;78.06
59487;BME280;45298;54.918;73.504;2022-12-29T10:36:10;101777.94;;;-17.82;77.97
59487;BME280;45298;54.918;73.504;2022-12-29T10:38:47;101765.94;;;-17.85;78.06
59487;BME280;45298;54.918;73.504;2022-12-29T10:41:53;101768.69;;;-17.82;77.78
59487;BME280;45298;54.918;73.504;2022-12-29T10:44:27;101884.31;;;-17.20;77.63
59487;BME280;45298;54.918;73.504;2022-12-29T10:47:04;101873.66;;;-17.26;78.06
59487;BME280;45298;54.918;73.504;2022-12-29T10:49:40;101874.69;;;-17.35;77.21
59487;BME280;45298;54.918;73.504;2022-12-29T10:52:11;101869.78;;;-17.54;77.26
59487;BME280;45298;54.918;73.504;2022-12-29T10:57:28;101919.09;;;-17.40;77.63
59487;BME280;45298;54.918;73.504;2022-12-29T10:59:59;101893.25;;;-17.67;77.27
59487;BME280;45298;54.918;73.504;2022-12-29T11:08:10;101896.69;;;-17.87;77.41
59487;BME280;45298;54.918;73.504;2022-12-29T11:10:43;101924.06;;;-17.93;77.25
59487;BME280;45298;54.918;73.504;2022-12-29T11:13:19;101889.38;;;-18.04;77.97
59487;BME280;45298;54.918;73.504;2022-12-29T11:15:52;101872.88;;;-18.20;77.41
59487;BME280;45298;54.918;73.504;2022-12-29T11:18:36;101898.09;;;-18.21;77.18
59487;BME280;45298;54.918;73.504;2022-12-29T11:21:33;101922.19;;;-18.16;77.21
59487;BME280;45298;54.918;73.504;2022-12-29T11:24:05;101878.56;;;-18.43;77.17
59487;BME280;45298;54.918;73.504;2022-12-29T11:26:34;101898.81;;;-18.53;76.98
59487;BME280;45298;54.918;73.504;2022-12-29T11:29:26;101919.81;;;-18.44;77.42
59487;BME280;45298;54.918;73.504;2022-12-29T11:31:58;101908.94;;;-18.53;77.12
59487;BME280;45298;54.918;73.504;2022-12-29T11:34:35;101859.97;;;-18.94;76.72
59487;BME280;45298;54.918;73.504;2022-12-29T11:37:06;101919.00;;;-18.74;77.24
59487;BME280;45298;54.918;73.504;2022-12-29T11:39:52;101917.03;;;-18.87;76.79
59487;BME280;45298;54.918;73.504;2022-12-29T11:42:41;101920.16;;;-19.00;76.88
59487;BME280;45298;54.918;73.504;2022-12-29T11:45:19;101866.97;;;-19.40;76.85
59487;BME280;45298;54.918;73.504;2022-12-29T11:48:19;101924.38;;;-19.20;77.03
59487;BME280;45298;54.918;73.504;2022-12-29T11:50:56;101877.16;;;-19.49;77.44
59487;BME280;45298;54.918;73.504;2022-12-29T11:53:39;101911.59;;;-19.40;76.98
59487;BME280;45298;54.918;73.504;2022-12-29T11:56:15;101878.22;;;-19.66;77.11
59487;BME280;45298;54.918;73.504;2022-12-29T11:58:44;101790.09;;;-20.20;77.21
59487;BME280;45298;54.918;73.504;2022-12-29T12:01:17;101929.78;;;-19.44;77.21
59487;BME280;45298;54.918;73.504;2022-12-29T12:04:10;101878.00;;;-19.78;77.03
59487;BME280;45298;54.918;73.504;2022-12-29T12:09:48;101934.13;;;-19.52;76.92
59487;BME280;45298;54.918;73.504;2022-12-29T12:12:35;101816.75;;;-20.13;76.69
59487;BME280;45298;54.918;73.504;2022-12-29T12:15:13;101945.34;;;-19.40;76.74
59487;BME280;45298;54.918;73.504;2022-12-29T12:18:24;101913.63;;;-19.55;76.98
59487;BME280;45298;54.918;73.504;2022-12-29T12:24:01;101889.41;;;-19.53;76.42
59487;BME280;45298;54.918;73.504;2022-12-29T12:26:42;101951.50;;;-19.27;76.17
59487;BME280;45298;54.918;73.504;2022-12-29T12:29:20;101917.19;;;-19.53;76.45
59487;BME280;45298;54.918;73.504;2022-12-29T12:41:36;101941.03;;;-19.22;76.15
59487;BME280;45298;54.918;73.504;2022-12-29T12:44:37;101808.66;;;-20.00;76.45
59487;BME280;45298;54.918;73.504;2022-12-29T12:53:12;101935.13;;;-18.82;76.51
59487;BME280;45298;54.918;73.504;2022-12-29T13:06:50;101943.59;;;-18.52;75.79
59487;BME280;45298;54.918;73.504;2022-12-29T13:18:34;101921.59;;;-18.43;76.04
59487;BME280;45298;54.918;73.504;2022-12-29T13:29:16;101946.50;;;-18.08;76.16
59487;BME280;45298;54.918;73.504;2022-12-29T13:32:02;101960.44;;;-18.03;75.87
59487;BME280;45298;54.918;73.504;2022-12-29T13:37:20;101944.81;;;-17.97;76.28
59487;BME280;45298;54.918;73.504;2022-12-29T13:40:01;101940.13;;;-17.93;76.50
59487;BME280;45298;54.918;73.504;2022-12-29T13:42:32;101945.88;;;-17.85;76.41
59487;BME280;45298;54.918;73.504;2022-12-29T13:45:06;101938.63;;;-17.80;75.61
59487;BME280;45298;54.918;73.504;2022-12-29T13:47:44;101921.41;;;-17.84;76.23
59487;BME280;45298;54.918;73.504;2022-12-29T13:50:19;101879.88;;;-18.07;75.71
59487;BME280;45298;54.918;73.504;2022-12-29T14:01:31;101946.59;;;-17.44;76.65
59487;BME280;45298;54.918;73.504;2022-12-29T14:04:22;101823.13;;;-18.09;75.63
59487;BME280;45298;54.918;73.504;2022-12-29T14:07:12;101937.72;;;-17.39;75.95
59487;BME280;45298;54.918;73.504;2022-12-29T14:15:15;101959.03;;;-17.27;75.61
59487;BME280;45298;54.918;73.504;2022-12-29T14:18:10;101836.19;;;-18.04;75.72
59487;BME280;45298;54.918;73.504;2022-12-29T14:23:42;101966.09;;;-17.23;76.02
59487;BME280;45298;54.918;73.504;2022-12-29T14:26:17;101949.41;;;-17.31;77.31
59487;BME280;45298;54.918;73.504;2022-12-29T14:28:48;101959.50;;;-17.21;77.31
59487;BME280;45298;54.918;73.504;2022-12-29T14:42:01;101955.72;;;-16.93;77.51
59487;BME280;45298;54.918;73.504;2022-12-29T14:44:33;101920.28;;;-17.04;77.08
59487;BME280;45298;54.918;73.504;2022-12-29T14:47:07;101946.06;;;-16.87;76.94
59487;BME280;45298;54.918;73.504;2022-12-29T14:49:42;101902.00;;;-17.10;76.67
59487;BME280;45298;54.918;73.504;2022-12-29T14:52:23;101952.94;;;-16.86;76.66
59487;BME280;45298;54.918;73.504;2022-12-29T15:01:00;101931.69;;;-16.98;77.17
59487;BME280;45298;54.918;73.504;2022-12-29T15:03:46;101947.13;;;-16.95;77.23
59487;BME280;45298;54.918;73.504;2022-12-29T15:06:18;101818.47;;;-17.72;77.00
59487;BME280;45298;54.918;73.504;2022-12-29T15:11:42;101920.59;;;-17.32;76.23
59487;BME280;45298;54.918;73.504;2022-12-29T15:14:34;101922.63;;;-17.27;76.57
59487;BME280;45298;54.918;73.504;2022-12-29T15:17:22;101921.63;;;-17.40;76.22
59487;BME280;45298;54.918;73.504;2022-12-29T15:19:53;101911.00;;;-17.56;76.89
59487;BME280;45298;54.918;73.504;2022-12-29T15:22:23;101914.91;;;-17.60;76.74
59487;BME280;45298;54.918;73.504;2022-12-29T15:24:53;101927.72;;;-17.48;76.32
59487;BME280;45298;54.918;73.504;2022-12-29T15:27:25;101909.22;;;-17.57;77.20
59487;BME280;45298;54.918;73.504;2022-12-29T15:29:59;101933.31;;;-17.42;77.44